West Jordan, UT

3:35 PM MST on December 18, 2014 (GMT -0700)
West Jordan-Angel Landing | Change Station
CLOSE
Current Station
Personal Weather Station
Location: West Jordan, UT
Elevation: 4455 ft
Nearby Weather Stations

Elev 4455 ft 40.61 °N, 111.95 °W | Updated 35 seconds ago

Overcast
Overcast
44.6 °F
Feels Like 45 °F
N
2.2
Wind Variable Wind from West

Today
High -- | Low -- °F
--% Chance of Precip.
Yesterday
High -- | Low -- °F
Precip. -- in
7:46 AM 5:02 PM
Waning Crescent, 12% visible
Pressure 30.13 in
Visibility 10.0 miles
Clouds Few 3300 ft
Few 5000 ft
Scattered Clouds 9000 ft
Scattered Clouds 20000 ft
Windchill 45 °F
Dew Point 31 °F
Humidity 58%
Rainfall 0.00 in
Snow Depth Not available.
UV 1 out of 12
Pollen .10 out of 12
Air Quality Not available.
Flu Activity Not available.
METAR KSLC 182153Z VRB03KT 10SM FEW033TCU FEW050 SCT090 SCT200 07/M01 A3012 RMK AO2 SLP202 VIRGA NW CB DSNT NW TCU N-E AND NW SH DSNT SW T00671011

More Conditions Fewer Conditions

Pressure 30.13 in
Visibility 10.0 miles
Clouds Few 3300 ft
Few 5000 ft
Scattered Clouds 9000 ft
Scattered Clouds 20000 ft
Windchill 45 °F
Dew Point 31 °F
Humidity 58%
Rainfall 0.00 in
Snow Depth Not available.
UV 1 out of 12
Pollen .10 out of 12
Air Quality Not available.
Flu Activity Not available.
METAR KSLC 182153Z VRB03KT 10SM FEW033TCU FEW050 SCT090 SCT200 07/M01 A3012 RMK AO2 SLP202 VIRGA NW CB DSNT NW TCU N-E AND NW SH DSNT SW T00671011

More Conditions Fewer Conditions

10-Day Weather Forecast

Almanac

Astronomy

Dec. 18, 2014 Rise Set
Actual Time
Civil Twilight
Nautical Twilight
Astronomical Twilight
Moon
Length of Visible Light
Length of Day
Tomorrow will be .
, % of the Moon is Illuminated

Today's Extremes

State Highs State Lows

Community

WunderPhotos

Upload Photos

1,779,010 photos uploaded!

WunderBlogs® & News

Nearby

Air Quality

  Air Quality AQ Index Pollutant
Not available.

Snow Depth

Station Depth Elevation

Earthquake Activity

City Distance Mag. Time & Date
Minimum magnitude displayed is 2.5.

Coastal Water Temperatures

Place Temperature

Nearby Weather Stations